Time;durP1;ratioP1;P1;durP2;ratioP2;P2;SDS_P1;SDS_P2;PMS_P1;PMS_P2;Temp;Humidity;BMP_temperature;BMP_pressure;BME280_temperature;BME280_humidity;BME280_pressure;Samples;Min_cycle;Max_cycle;Signal;HPM_P1;HPM_P2
2022/06/15 00:01:14;;;;;;;4.40;1.65;;;;;;;24.65;36.96;101656.68;1773233;80;21082;-48
2022/06/15 00:03:41;;;;;;;1.80;1.02;;;;;;;24.60;36.96;101652.62;1723767;83;21484;-50
2022/06/15 00:06:18;;;;;;;3.22;1.45;;;;;;;24.57;37.11;101663.45;1725274;83;21137;-49
2022/06/15 00:08:47;;;;;;;1.82;1.30;;;;;;;24.55;36.92;101656.05;1725393;83;21579;-49
2022/06/15 00:11:17;;;;;;;1.40;1.20;;;;;;;24.55;36.92;101656.05;1725348;83;21054;-54
2022/06/15 00:13:45;;;;;;;2.25;1.07;;;;;;;24.53;37.02;101659.29;1725776;83;21038;-52
2022/06/15 00:16:13;;;;;;;2.52;1.20;;;;;;;24.50;36.39;101654.19;1719999;83;21067;-48
2022/06/15 00:18:41;;;;;;;1.98;1.20;;;;;;;24.46;37.03;101652.18;1717078;83;21039;-52
2022/06/15 00:21:08;;;;;;;2.65;1.22;;;;;;;24.44;36.63;101655.92;1717119;83;21129;-53
2022/06/15 00:23:35;;;;;;;1.75;1.55;;;;;;;24.41;36.58;101666.75;1717318;83;21357;-48
2022/06/15 00:26:04;;;;;;;2.20;1.02;;;;;;;24.37;36.22;101655.45;1717350;83;21087;-48
2022/06/15 00:28:31;;;;;;;3.45;1.42;;;;;;;24.34;36.68;101650.32;1714816;83;21483;-50
2022/06/15 00:30:58;;;;;;;1.90;1.25;;;;;;;24.32;36.74;101654.06;1716951;83;21066;-50
2022/06/15 00:33:26;;;;;;;1.90;1.20;;;;;;;24.28;36.52;101649.89;1717266;83;21491;-48
2022/06/15 00:35:58;;;;;;;2.00;1.27;;;;;;;24.24;36.61;101642.09;1717306;83;21023;-49
2022/06/15 00:38:33;;;;;;;;;;;;;;;24.21;37.01;101640.95;1600170;90;21088;-47
2022/06/15 00:41:01;;;;;;;1.85;1.12;;;;;;;24.17;36.36;101643.42;1537462;92;20204;-51
2022/06/15 00:43:35;;;;;;;3.98;1.05;;;;;;;24.13;36.63;101641.92;1510633;93;21142;-48
2022/06/15 00:46:19;;;;;;;1.27;1.17;;;;;;;24.08;36.84;101643.17;1447766;99;21550;-48
2022/06/15 00:48:53;;;;;;;3.52;1.12;;;;;;;24.08;36.72;101650.69;1469521;96;21109;-49
2022/06/15 00:51:20;;;;;;;2.02;1.07;;;;;;;24.05;37.01;101660.17;1470167;97;21184;-53
2022/06/15 00:53:47;;;;;;;2.70;1.20;;;;;;;24.04;37.55;101662.47;1447991;99;21165;-51
2022/06/15 00:56:14;;;;;;;1.65;1.10;;;;;;;24.03;37.64;101668.72;1470423;97;21136;-48
2022/06/15 00:58:45;;;;;;;1.92;1.07;;;;;;;24.03;37.27;101665.16;1470196;97;21202;-48
2022/06/15 01:01:13;;;;;;;;;;;;;;;24.01;37.22;101677.23;1476544;97;21112;-50
2022/06/15 01:03:40;;;;;;;2.00;1.00;;;;;;;24.00;37.74;101680.86;1495416;96;20136;-51
2022/06/15 01:06:44;;;;;;;3.08;1.10;;;;;;;24.01;38.22;101677.23;1461865;98;21164;-48
2022/06/15 01:09:25;;;;;;;3.33;1.15;;;;;;;23.99;37.75;101686.25;1348179;106;21260;-48
2022/06/15 01:12:10;;;;;;;4.03;1.15;;;;;;;23.96;37.57;101675.83;1310932;109;21216;-49
2022/06/15 01:15:04;;;;;;;2.27;1.55;;;;;;;23.92;37.31;101669.00;1329031;107;21193;-51
2022/06/15 01:17:58;;;;;;;1.95;1.00;;;;;;;23.82;37.38;101663.38;1302846;108;21287;-51
2022/06/15 01:20:51;;;;;;;1.65;1.02;;;;;;;23.82;37.38;101663.38;1321318;107;21214;-48
2022/06/15 01:24:14;;;;;;;2.60;1.10;;;;;;;23.81;37.21;101673.65;1301011;109;21153;-50
2022/06/15 01:27:22;;;;;;;1.90;1.30;;;;;;;23.78;37.23;101669.84;1309036;109;21177;-51
2022/06/15 01:30:12;;;;;;;1.50;1.10;;;;;;;23.74;37.03;101672.30;1310309;109;21169;-50
2022/06/15 01:33:11;;;;;;;2.75;1.20;;;;;;;23.69;37.34;101669.09;1310932;109;21145;-48
2022/06/15 01:35:52;;;;;;;3.25;1.12;;;;;;;23.67;37.74;101674.12;1309575;109;21751;-48
2022/06/15 01:38:49;;;;;;;1.82;1.30;;;;;;;23.64;38.16;101675.16;1325580;107;21147;-50
2022/06/15 01:41:30;;;;;;;2.00;1.07;;;;;;;23.63;38.63;101682.77;1345770;103;21146;-47
2022/06/15 01:44:07;;;;;;;1.17;1.00;;;;;;;23.64;38.32;101691.59;1440173;94;21144;-52
2022/06/15 01:46:38;;;;;;;2.25;1.20;;;;;;;23.62;38.35;101702.30;1519882;94;21116;-49
2022/06/15 01:49:06;;;;;;;2.02;1.02;;;;;;;23.62;38.20;101702.30;1534430;92;21058;-51
2022/06/15 01:51:39;;;;;;;1.17;1.02;;;;;;;23.60;38.16;101702.86;1502774;95;21119;-48
2022/06/15 01:54:12;;;;;;;2.87;1.03;;;;;;;23.60;38.41;101698.88;1497372;96;21107;-52
2022/06/15 01:56:44;;;;;;;3.40;1.12;;;;;;;23.57;38.31;101699.55;1522688;93;21622;-49
2022/06/15 01:59:33;;;;;;;1.20;0.95;;;;;;;23.55;38.61;101706.29;1518202;93;21133;-50
2022/06/15 02:02:20;;;;;;;2.70;1.15;;;;;;;23.54;38.96;101697.92;1515401;94;21089;-52
2022/06/15 02:05:20;;;;;;;1.32;1.20;;;;;;;23.54;39.15;101703.23;1515547;94;21098;-48
2022/06/15 02:08:13;;;;;;;1.60;1.30;;;;;;;23.52;39.02;101715.76;1565205;91;21087;-49
2022/06/15 02:10:52;;;;;;;2.25;0.93;;;;;;;23.49;39.09;101718.62;1565448;91;21094;-48
2022/06/15 02:13:31;;;;;;;2.22;1.25;;;;;;;23.47;39.22;101725.83;1567091;91;21038;-48
2022/06/15 02:16:04;;;;;;;8.18;1.30;;;;;;;23.43;38.58;101736.25;1575922;89;21085;-51
2022/06/15 02:18:32;;;;;;;2.22;1.10;;;;;;;23.37;38.15;101740.57;1609790;89;21043;-52
2022/06/15 02:21:03;;;;;;;2.45;1.20;;;;;;;23.30;38.17;101744.06;1589797;89;21613;-50
2022/06/15 02:23:31;;;;;;;2.22;1.20;;;;;;;23.26;38.27;101742.99;1514787;95;21065;-48
2022/06/15 02:25:59;;;;;;;1.57;0.90;;;;;;;23.22;37.98;101740.13;1517843;94;21051;-49
2022/06/15 02:28:32;;;;;;;2.25;1.20;;;;;;;23.21;37.88;101745.05;1513537;95;21539;-48
2022/06/15 02:30:59;;;;;;;3.45;1.20;;;;;;;23.21;37.71;101755.67;1531361;93;21119;-48
2022/06/15 02:33:31;;;;;;;3.42;1.90;;;;;;;23.21;37.85;101750.36;1513525;95;21101;-48
2022/06/15 02:36:00;;;;;;;1.82;1.12;;;;;;;23.20;37.92;101749.99;1511904;93;21069;-50
2022/06/15 02:38:29;;;;;;;1.85;0.80;;;;;;;23.20;37.87;101743.35;1513679;95;21078;-49
2022/06/15 02:40:57;;;;;;;1.30;1.20;;;;;;;23.21;37.96;101753.88;1530714;93;21133;-48
2022/06/15 02:43:27;;;;;;;1.60;1.00;;;;;;;23.24;38.28;101759.48;1514086;95;21591;-51
2022/06/15 02:45:57;;;;;;;1.75;1.10;;;;;;;23.24;37.95;101764.80;1511272;95;21105;-48
2022/06/15 02:48:25;;;;;;;1.47;0.90;;;;;;;23.25;38.24;101763.38;1532812;93;21086;-50
2022/06/15 02:50:58;;;;;;;4.10;1.30;;;;;;;23.25;38.12;101754.08;1567490;91;21078;-48
2022/06/15 02:53:28;;;;;;;2.67;1.37;;;;;;;23.25;37.88;101754.55;1582631;89;21081;-48
2022/06/15 02:55:57;;;;;;;1.07;0.95;;;;;;;23.28;38.07;101765.00;1577369;89;21043;-53
2022/06/15 02:58:40;;;;;;;2.27;0.80;;;;;;;23.30;37.98;101771.08;1598218;89;21097;-48
2022/06/15 03:01:07;;;;;;;2.17;1.00;;;;;;;23.32;38.17;101766.56;1586679;89;21072;-50
2022/06/15 03:03:37;;;;;;;1.87;1.27;;;;;;;23.34;37.92;101764.67;1631539;88;21058;-48
2022/06/15 03:06:13;;;;;;;5.03;1.22;;;;;;;23.33;38.05;101760.30;1578982;90;21067;-53
2022/06/15 03:08:41;;;;;;;3.02;1.20;;;;;;;23.33;38.00;101760.30;1580281;90;21071;-48
2022/06/15 03:11:12;;;;;;;1.23;1.13;;;;;;;23.36;38.24;101760.13;1581567;90;21083;-52
2022/06/15 03:13:39;;;;;;;2.40;1.20;;;;;;;23.38;38.45;101763.55;1581589;90;21134;-53
2022/06/15 03:16:06;;;;;;;2.22;1.10;;;;;;;23.39;38.17;101766.10;1591462;88;21543;-48
2022/06/15 03:18:34;;;;;;;3.62;1.35;;;;;;;23.39;38.04;101765.23;1607018;88;21062;-48
2022/06/15 03:21:04;;;;;;;3.37;1.40;;;;;;;23.40;38.24;101759.00;1644814;87;21094;-48
2022/06/15 03:23:31;;;;;;;1.87;1.07;;;;;;;23.43;38.57;101754.34;1651623;87;21075;-48
2022/06/15 03:26:00;;;;;;;1.22;1.10;;;;;;;23.45;38.33;101763.08;1652870;87;21087;-48
2022/06/15 03:28:27;;;;;;;3.37;1.20;;;;;;;23.49;38.20;101768.23;1636304;87;21050;-53
2022/06/15 03:30:55;;;;;;;3.22;1.32;;;;;;;23.53;38.35;101772.41;1650661;87;21034;-49
2022/06/15 03:33:22;;;;;;;2.33;1.20;;;;;;;23.57;37.91;101776.13;1650810;87;21027;-48
2022/06/15 03:35:49;;;;;;;1.50;1.02;;;;;;;23.63;37.73;101778.42;1652159;87;21114;-49
2022/06/15 03:38:17;;;;;;;2.47;0.90;;;;;;;23.69;37.59;101787.81;1643507;87;21031;-50
2022/06/15 03:40:46;;;;;;;2.55;1.15;;;;;;;23.74;37.95;101787.08;1644517;87;21071;-48
2022/06/15 03:43:15;;;;;;;2.92;1.15;;;;;;;23.81;37.47;101781.30;1651755;87;21106;-49
2022/06/15 03:45:44;;;;;;;2.22;0.80;;;;;;;23.97;37.06;101785.19;1652922;87;21483;-50
2022/06/15 03:48:13;;;;;;;4.20;1.00;;;;;;;24.21;36.99;101787.22;1615241;87;21090;-49
2022/06/15 03:50:42;;;;;;;2.40;1.20;;;;;;;24.55;37.02;101790.43;1650528;87;21043;-48
2022/06/15 03:53:11;;;;;;;2.67;1.57;;;;;;;24.92;36.96;101791.14;1648257;87;21047;-51
2022/06/15 03:55:40;;;;;;;2.70;1.40;;;;;;;25.16;38.06;101796.22;1652697;87;21035;-49
2022/06/15 03:58:12;;;;;;;2.87;1.50;;;;;;;25.21;37.96;101794.08;1645337;87;21047;-48
2022/06/15 04:00:40;;;;;;;1.40;1.30;;;;;;;25.19;38.41;101792.00;1651571;87;21095;-51
2022/06/15 04:03:08;;;;;;;2.35;1.40;;;;;;;25.13;38.91;101799.06;1712881;80;21042;-48
2022/06/15 04:05:41;;;;;;;4.47;1.65;;;;;;;25.06;39.21;101801.74;1671335;85;21060;-48
2022/06/15 04:08:35;;;;;;;2.62;1.47;;;;;;;24.98;39.27;101796.92;1670907;85;21031;-48
2022/06/15 04:11:58;;;;;;;2.08;1.15;;;;;;;24.89;39.16;101807.34;1676650;85;21063;-49
2022/06/15 04:13:41;;;;;;;1.80;1.12;;;;;;;24.85;39.05;101803.16;1674094;85;21047;-48
2022/06/15 04:16:10;;;;;;;2.17;1.20;;;;;;;24.79;39.51;101802.23;1677605;85;21082;-52
2022/06/15 04:18:38;;;;;;;2.00;1.30;;;;;;;24.71;39.54;101803.17;1673536;85;21086;-49
2022/06/15 04:21:07;;;;;;;2.20;1.20;;;;;;;24.62;39.93;101802.41;1670175;85;21062;-49
2022/06/15 04:23:34;;;;;;;2.15;1.45;;;;;;;24.55;39.88;101802.41;1674434;85;21000;-48
2022/06/15 04:26:03;;;;;;;1.80;1.40;;;;;;;24.48;39.18;101811.75;1676843;85;21090;-48
2022/06/15 04:28:33;;;;;;;2.72;1.00;;;;;;;24.40;38.78;101814.03;1639592;87;21089;-54
2022/06/15 04:31:02;;;;;;;1.50;1.00;;;;;;;24.38;38.18;101815.94;1632512;87;21046;-48
2022/06/15 04:33:31;;;;;;;1.50;1.10;;;;;;;24.36;37.98;101812.52;1641200;87;21073;-49
2022/06/15 04:36:00;;;;;;;2.75;1.17;;;;;;;24.38;36.73;101811.95;1593925;89;21624;-52
2022/06/15 04:38:27;;;;;;;2.37;1.20;;;;;;;24.41;36.48;101821.91;1603489;89;21119;-49
2022/06/15 04:41:03;;;;;;;1.37;0.98;;;;;;;24.47;36.39;101812.68;1587995;89;21552;-48
2022/06/15 04:43:31;;;;;;;2.00;1.40;;;;;;;24.47;36.39;101812.68;1642053;87;21106;-48
2022/06/15 04:45:58;;;;;;;2.47;1.10;;;;;;;24.51;36.53;101815.53;1637296;87;21093;-48
2022/06/15 04:48:27;;;;;;;2.12;1.00;;;;;;;24.54;36.99;101819.34;1605356;89;21078;-50
2022/06/15 04:50:55;;;;;;;2.50;1.27;;;;;;;24.56;36.39;101822.77;1603535;88;21095;-48
2022/06/15 04:53:24;;;;;;;2.00;1.00;;;;;;;24.54;36.19;101826.86;1592627;89;21055;-49
2022/06/15 04:55:52;;;;;;;2.40;1.20;;;;;;;24.59;36.15;101822.08;1639183;87;21090;-48
2022/06/15 04:58:19;;;;;;;3.47;1.27;;;;;;;24.66;36.33;101822.55;1640003;87;21129;-48
2022/06/15 05:00:48;;;;;;;3.62;1.30;;;;;;;24.73;36.85;101826.55;1594952;89;21088;-49
2022/06/15 05:03:17;;;;;;;2.20;1.02;;;;;;;24.82;36.42;101822.84;1680039;84;21106;-49
2022/06/15 05:05:45;;;;;;;2.27;1.10;;;;;;;24.93;36.23;101833.67;1734252;80;21538;-48
2022/06/15 05:08:12;;;;;;;1.87;1.20;;;;;;;25.04;35.66;101834.28;1777327;80;20991;-52
2022/06/15 05:10:41;;;;;;;3.10;1.10;;;;;;;25.12;35.25;101841.32;1776820;80;21022;-50
2022/06/15 05:13:08;;;;;;;2.72;1.40;;;;;;;25.23;35.11;101837.45;1777645;80;21030;-48
2022/06/15 05:15:38;;;;;;;2.00;1.10;;;;;;;25.36;34.60;101837.04;1773641;80;21522;-48
2022/06/15 05:18:08;;;;;;;2.12;1.32;;;;;;;25.50;34.14;101837.00;1752092;80;21042;-51
2022/06/15 05:20:41;;;;;;;1.65;1.00;;;;;;;25.55;33.80;101834.03;1773904;80;21049;-48
2022/06/15 05:23:14;;;;;;;4.42;1.37;;;;;;;25.56;33.88;101837.92;1774829;81;21027;-48
2022/06/15 05:26:01;;;;;;;2.08;1.07;;;;;;;25.55;33.91;101833.56;1775760;81;21030;-50
2022/06/15 05:28:29;;;;;;;2.80;1.35;;;;;;;25.54;33.67;101832.31;1774722;81;21058;-48
2022/06/15 05:31:13;;;;;;;1.22;1.10;;;;;;;25.53;33.66;101837.28;1770439;81;20998;-48
2022/06/15 05:33:42;;;;;;;2.03;1.37;;;;;;;25.49;33.95;101835.28;1761242;81;21011;-49
2022/06/15 05:36:14;;;;;;;2.90;1.35;;;;;;;25.44;34.16;101830.75;1758083;81;20986;-51
2022/06/15 05:38:44;;;;;;;3.25;1.87;;;;;;;25.42;33.94;101826.00;1752883;81;21042;-48
2022/06/15 05:41:11;;;;;;;5.40;2.15;;;;;;;25.39;33.45;101828.83;1752247;81;21058;-50
2022/06/15 05:43:41;;;;;;;2.92;1.30;;;;;;;25.41;33.50;101826.11;1753272;82;21018;-49
2022/06/15 05:46:24;;;;;;;2.22;1.25;;;;;;;25.39;34.03;101832.82;1752655;81;20990;-53
2022/06/15 05:48:52;;;;;;;1.82;1.30;;;;;;;25.35;34.72;101839.31;1749163;81;21071;-50
2022/06/15 05:51:22;;;;;;;2.33;1.25;;;;;;;25.34;36.59;101841.61;1752968;81;20986;-47
2022/06/15 05:53:49;;;;;;;4.40;1.32;;;;;;;25.33;36.56;101845.22;1752658;82;22495;-49
2022/06/15 05:56:16;;;;;;;2.98;1.40;;;;;;;25.32;37.63;101842.20;1752547;82;21058;-50
2022/06/15 05:58:44;;;;;;;1.85;1.55;;;;;;;25.33;38.26;101845.69;1753155;81;21515;-48
2022/06/15 06:01:15;;;;;;;3.62;1.47;;;;;;;25.13;38.54;101847.48;1752679;81;21022;-48
2022/06/15 06:03:42;;;;;;;;;;;;;;;25.07;38.82;101847.41;1692430;84;21557;-52
2022/06/15 06:06:10;;;;;;;1.87;1.37;;;;;;;25.12;39.72;101849.31;1689523;85;20400;-48
2022/06/15 06:08:38;;;;;;;2.45;1.67;;;;;;;25.34;39.78;101854.94;1664095;85;21026;-49
2022/06/15 06:11:06;;;;;;;7.67;2.00;;;;;;;25.40;39.61;101851.87;1692735;84;21054;-51
2022/06/15 06:13:33;;;;;;;3.00;1.30;;;;;;;25.50;39.33;101854.33;1690719;83;21041;-48
2022/06/15 06:16:01;;;;;;;3.15;1.40;;;;;;;25.50;39.36;101852.99;1687722;84;21255;-49
2022/06/15 06:18:28;;;;;;;1.70;1.22;;;;;;;25.53;39.23;101851.44;1684362;83;21094;-53
2022/06/15 06:20:56;;;;;;;3.00;1.55;;;;;;;25.54;39.17;101853.16;1689130;85;21101;-50
2022/06/15 06:23:23;;;;;;;3.47;1.47;;;;;;;25.58;39.47;101858.66;1689442;85;21066;-52
2022/06/15 06:25:50;;;;;;;2.45;1.42;;;;;;;25.67;39.21;101858.53;1689350;85;21078;-48
2022/06/15 06:28:31;;;;;;;4.15;1.45;;;;;;;25.76;39.12;101859.26;1688845;85;21045;-49
2022/06/15 06:31:00;;;;;;;2.40;1.50;;;;;;;25.81;39.15;101852.64;1689522;85;21037;-48
2022/06/15 06:33:29;;;;;;;3.50;1.40;;;;;;;25.87;39.13;101858.50;1689717;85;21073;-48
2022/06/15 06:35:58;;;;;;;4.50;1.50;;;;;;;25.87;39.12;101855.84;1679205;85;21059;-52
2022/06/15 06:38:25;;;;;;;2.90;1.40;;;;;;;25.85;39.16;101861.28;1693869;85;21512;-48
2022/06/15 06:40:53;;;;;;;1.27;1.17;;;;;;;25.82;39.35;101856.17;1725332;81;21034;-49
2022/06/15 06:43:20;;;;;;;2.75;1.62;;;;;;;25.80;39.11;101860.25;1742426;81;21467;-49
2022/06/15 06:45:48;;;;;;;2.30;1.45;;;;;;;25.78;39.13;101859.50;1763128;81;21090;-48
2022/06/15 06:48:16;;;;;;;2.15;1.10;;;;;;;25.79;39.09;101861.70;1767619;81;21047;-50
2022/06/15 06:50:43;;;;;;;1.80;1.05;;;;;;;25.83;38.29;101858.73;1774239;81;21038;-49
2022/06/15 06:53:12;;;;;;;3.77;1.55;;;;;;;25.91;38.08;101862.19;1762442;81;21034;-52
2022/06/15 06:55:39;;;;;;;1.60;1.20;;;;;;;26.02;37.50;101868.13;1773223;81;21030;-49
2022/06/15 06:58:06;;;;;;;3.52;1.25;;;;;;;26.12;37.32;101869.23;1767969;80;21003;-48
2022/06/15 07:00:34;;;;;;;7.30;1.30;;;;;;;26.24;36.88;101861.24;1772207;80;20999;-51
2022/06/15 07:03:02;;;;;;;4.62;1.42;;;;;;;26.37;36.42;101864.77;1763364;80;21027;-53
2022/06/15 07:05:29;;;;;;;2.47;1.40;;;;;;;26.47;35.59;101871.64;1763754;81;21515;-48
2022/06/15 07:07:57;;;;;;;2.25;1.30;;;;;;;26.52;34.52;101866.34;1763660;80;21031;-47
2022/06/15 07:10:26;;;;;;;3.33;1.32;;;;;;;26.59;34.40;101867.63;1765270;81;21019;-48
2022/06/15 07:12:55;;;;;;;2.22;1.27;;;;;;;26.61;33.89;101867.03;1767258;81;21042;-50
2022/06/15 07:15:22;;;;;;;2.75;1.40;;;;;;;26.62;33.97;101866.56;1750280;80;20999;-47
2022/06/15 07:17:50;;;;;;;3.83;1.30;;;;;;;26.61;33.92;101868.84;1765673;80;21106;-52
2022/06/15 07:20:18;;;;;;;3.27;1.40;;;;;;;26.63;33.50;101864.25;1772480;81;21007;-48
2022/06/15 07:22:46;;;;;;;3.70;1.30;;;;;;;26.70;33.20;101875.34;1766964;80;21077;-54
2022/06/15 07:25:13;;;;;;;2.25;1.17;;;;;;;26.77;33.56;101870.81;1768171;80;21058;-48
2022/06/15 07:27:43;;;;;;;2.35;1.00;;;;;;;26.89;32.81;101867.30;1760994;81;21062;-52
2022/06/15 07:30:15;;;;;;;3.65;1.20;;;;;;;27.06;32.15;101866.07;1764891;81;21070;-49
2022/06/15 07:32:43;;;;;;;2.95;1.00;;;;;;;27.24;32.07;101865.54;1709117;83;21045;-48
2022/06/15 07:35:18;;;;;;;1.45;1.17;;;;;;;27.41;32.10;101862.16;1707564;83;21125;-54
2022/06/15 07:37:46;;;;;;;1.62;1.02;;;;;;;27.51;31.78;101871.20;1704518;83;21073;-48
2022/06/15 07:40:13;;;;;;;2.35;1.05;;;;;;;27.57;31.52;101870.73;1707613;83;21070;-53
2022/06/15 07:42:40;;;;;;;0.90;0.90;;;;;;;27.64;30.84;101875.97;1705446;83;21074;-49
2022/06/15 07:45:09;;;;;;;2.72;1.60;;;;;;;27.66;30.27;101868.68;1708995;83;20995;-49
2022/06/15 07:50:22;;;;;;;4.33;2.00;;;;;;;27.70;30.75;101874.20;1711461;82;21565;-49
2022/06/15 07:52:50;;;;;;;3.27;1.22;;;;;;;27.73;30.46;101876.63;1701656;83;21067;-50
2022/06/15 07:55:22;;;;;;;2.35;0.93;;;;;;;27.73;30.12;101875.28;1705519;83;21059;-49
2022/06/15 07:57:49;;;;;;;2.72;1.25;;;;;;;27.74;29.82;101873.00;1637394;86;21569;-52
2022/06/15 08:00:17;;;;;;;29.60;2.67;;;;;;;27.74;29.92;101875.67;1644161;86;21040;-52
2022/06/15 08:02:44;;;;;;;2.15;1.00;;;;;;;27.72;29.82;101876.27;1644670;86;21052;-52
2022/06/15 08:05:11;;;;;;;2.22;0.80;;;;;;;27.69;29.94;101882.70;1645142;86;21096;-50
2022/06/15 08:07:38;;;;;;;2.40;1.30;;;;;;;27.68;30.37;101877.44;1645462;86;21123;-49
2022/06/15 08:10:06;;;;;;;4.08;1.20;;;;;;;27.68;30.11;101878.30;1643207;86;21013;-51
2022/06/15 08:12:35;;;;;;;1.75;1.10;;;;;;;27.70;29.31;101883.56;1640318;86;21021;-50
2022/06/15 08:15:02;;;;;;;1.02;0.80;;;;;;;27.72;29.95;101886.97;1636511;86;21068;-49
2022/06/15 08:17:40;;;;;;;2.40;0.93;;;;;;;27.74;29.81;101891.72;1637706;86;21099;-49
2022/06/15 08:20:20;;;;;;;1.32;0.85;;;;;;;27.74;29.33;101895.73;1544978;90;21131;-54
2022/06/15 08:22:52;;;;;;;1.98;0.90;;;;;;;27.75;28.55;101889.39;1535888;93;21160;-49
2022/06/15 08:25:23;;;;;;;1.27;0.90;;;;;;;27.75;28.60;101897.41;1538893;93;21073;-51
2022/06/15 08:27:50;;;;;;;;;;;;;;;27.79;29.09;101892.20;1522133;93;21086;-49
2022/06/15 08:30:18;;;;;;;0.95;0.90;;;;;;;27.85;28.54;101894.41;1479674;96;20159;-50
2022/06/15 08:32:45;;;;;;;3.10;0.82;;;;;;;27.89;27.99;101895.88;1482754;96;21141;-52
2022/06/15 08:35:13;;;;;;;1.67;0.90;;;;;;;27.92;27.79;101890.31;1479180;96;21114;-54
2022/06/15 08:37:40;;;;;;;1.37;1.27;;;;;;;27.94;27.87;101882.55;1485175;96;21039;-49
2022/06/15 08:40:08;;;;;;;3.45;1.12;;;;;;;27.97;27.54;101894.84;1485340;94;21641;-51
2022/06/15 08:43:01;;;;;;;1.35;0.65;;;;;;;27.94;28.13;101897.26;1519609;94;21057;-49
2022/06/15 08:45:39;;;;;;;2.35;1.00;;;;;;;27.95;27.10;101904.77;1517517;94;21180;-51
2022/06/15 08:48:26;;;;;;;2.15;1.00;;;;;;;27.95;27.86;101896.75;1530107;92;21540;-48
2022/06/15 08:51:01;;;;;;;1.98;0.80;;;;;;;27.99;27.10;101896.91;1528691;93;21140;-50
2022/06/15 08:53:36;;;;;;;2.67;0.95;;;;;;;28.02;26.95;101895.36;1514733;95;21118;-51
2022/06/15 08:56:23;;;;;;;0.98;0.80;;;;;;;28.05;26.99;101900.45;1474078;95;21115;-51
2022/06/15 08:59:03;;;;;;;1.95;0.78;;;;;;;28.07;26.62;101898.52;1425676;99;21629;-49
2022/06/15 09:02:00;;;;;;;0.95;0.78;;;;;;;28.10;26.87;101900.97;1402989;101;21138;-49
2022/06/15 09:04:46;;;;;;;0.82;0.70;;;;;;;28.12;26.52;101899.89;1426526;99;21210;-51
2022/06/15 09:07:44;;;;;;;4.72;1.00;;;;;;;28.13;26.07;101898.07;1423109;101;21162;-49
2022/06/15 09:11:02;;;;;;;3.52;0.85;;;;;;;28.17;26.50;101904.89;1418648;101;21112;-51
2022/06/15 09:13:48;;;;;;;1.95;0.70;;;;;;;28.20;25.89;101897.95;1423046;98;21628;-49
2022/06/15 09:16:32;;;;;;;3.70;0.70;;;;;;;28.24;25.88;101905.24;1437237;97;21622;-51
2022/06/15 09:19:08;;;;;;;1.90;0.90;;;;;;;28.25;25.41;101906.48;1537745;90;28516;-50
2022/06/15 09:21:45;;;;;;;1.98;0.80;;;;;;;28.28;25.10;101902.22;1588943;90;21645;-50
2022/06/15 09:24:23;;;;;;;1.65;1.12;;;;;;;28.37;24.93;101894.82;1589224;90;21038;-52
2022/06/15 09:26:54;;;;;;;3.02;1.05;;;;;;;28.43;25.60;101897.02;1587250;90;21557;-52
2022/06/15 09:29:34;;;;;;;1.10;0.70;;;;;;;28.51;25.25;101893.24;1524724;94;21058;-52
2022/06/15 09:32:20;;;;;;;1.17;0.78;;;;;;;28.57;25.36;101896.80;1404398;101;21151;-50
2022/06/15 09:34:59;;;;;;;2.50;0.70;;;;;;;28.59;24.76;101890.84;1404791;101;21189;-50
2022/06/15 09:37:27;;;;;;;3.85;1.02;;;;;;;28.59;25.30;101900.22;1361724;104;21272;-49
2022/06/15 09:39:55;;;;;;;1.40;0.72;;;;;;;28.61;24.66;101898.27;1355951;104;21866;-52
2022/06/15 09:42:33;;;;;;;1.17;0.68;;;;;;;28.61;24.29;101890.23;1362286;104;21130;-49
2022/06/15 09:45:14;;;;;;;1.92;0.80;;;;;;;28.63;24.66;101886.08;1280471;111;21153;-56
2022/06/15 09:48:04;;;;;;;1.47;1.00;;;;;;;28.70;24.51;101882.81;1282539;111;21141;-50
2022/06/15 09:50:39;;;;;;;1.72;0.70;;;;;;;28.76;24.55;101886.34;1272179;111;21700;-52
2022/06/15 09:53:26;;;;;;;6.75;0.72;;;;;;;28.80;24.20;101885.12;1266791;112;21195;-49
2022/06/15 09:55:58;;;;;;;1.52;0.72;;;;;;;28.82;24.13;101884.52;1313542;107;21158;-49
2022/06/15 09:58:29;;;;;;;0.65;0.65;;;;;;;28.83;23.98;101884.86;1314484;108;21162;-51
2022/06/15 10:00:56;;;;;;;1.10;0.80;;;;;;;28.82;24.05;101873.80;1317948;107;21169;-49
2022/06/15 10:03:34;;;;;;;1.75;0.70;;;;;;;28.81;23.96;101879.28;1319048;108;21205;-52
2022/06/15 10:06:09;;;;;;;1.32;0.70;;;;;;;28.79;24.27;101878.05;1295505;110;21165;-52
2022/06/15 10:08:38;;;;;;;2.75;0.80;;;;;;;28.81;24.19;101879.28;1294308;110;21721;-51
2022/06/15 10:11:11;;;;;;;1.98;0.88;;;;;;;28.80;24.08;101886.46;1300953;109;21204;-50
2022/06/15 10:13:36;;;;;;;2.92;0.93;;;;;;;28.83;24.37;101878.67;1290482;109;21263;-51
2022/06/15 10:16:26;;;;;;;1.62;0.90;;;;;;;28.84;24.00;101875.86;1299655;109;21164;-52
2022/06/15 10:18:55;;;;;;;2.40;0.70;;;;;;;28.90;24.18;101872.69;1319487;107;21156;-49
2022/06/15 10:21:29;;;;;;;3.05;1.00;;;;;;;28.97;23.95;101871.19;1346164;100;21232;-49
2022/06/15 10:24:26;;;;;;;1.25;0.80;;;;;;;29.00;24.01;101874.63;1427622;100;21159;-52
2022/06/15 10:27:18;;;;;;;1.92;0.80;;;;;;;28.96;23.37;101876.20;1402355;100;21183;-50
2022/06/15 10:30:03;;;;;;;2.12;1.00;;;;;;;28.97;23.57;101867.17;1414206;99;21161;-53
2022/06/15 10:32:31;;;;;;;2.20;0.80;;;;;;;29.02;23.75;101867.31;1421398;100;21157;-50
2022/06/15 10:35:15;;;;;;;1.82;0.85;;;;;;;29.04;23.44;101864.02;1417707;100;21211;-50
2022/06/15 10:37:54;;;;;;;1.07;0.80;;;;;;;29.04;23.12;101860.00;1405857;100;21164;-50
2022/06/15 10:40:31;;;;;;;1.32;0.70;;;;;;;29.05;23.96;101865.71;1422645;100;21136;-52
2022/06/15 10:43:14;;;;;;;2.47;0.80;;;;;;;29.05;23.45;101860.34;1494307;95;21128;-50
2022/06/15 10:46:00;;;;;;;1.20;0.72;;;;;;;29.09;23.60;101859.98;1491343;95;21130;-51
2022/06/15 10:48:49;;;;;;;1.47;0.93;;;;;;;29.12;22.75;101860.23;1490090;95;21615;-49
2022/06/15 10:51:33;;;;;;;1.87;0.70;;;;;;;29.15;22.98;101864.02;1468602;97;21143;-50
2022/06/15 10:54:24;;;;;;;0.78;0.65;;;;;;;29.19;22.84;101857.42;1434174;99;21144;-52
2022/06/15 11:02:39;;;;;;;1.85;0.80;;;;;;;29.19;23.21;101860.09;1450027;96;21582;-52
2022/06/15 11:05:18;;;;;;;1.12;0.80;;;;;;;29.20;23.30;101859.14;1466512;96;21111;-51
2022/06/15 11:07:55;;;;;;;1.27;0.60;;;;;;;29.21;23.11;101861.69;1429536;99;21079;-52
2022/06/15 11:10:37;;;;;;;1.60;0.70;;;;;;;29.22;23.02;101862.06;1429540;100;21669;-51
2022/06/15 11:13:09;;;;;;;0.82;0.60;;;;;;;29.25;23.08;101859.59;1392472;102;21584;-51
2022/06/15 11:18:39;;;;;;;0.95;0.62;;;;;;;29.29;22.76;101861.90;1408092;100;21189;-49
2022/06/15 11:21:20;;;;;;;2.35;0.90;;;;;;;29.23;22.64;101862.89;1430447;100;21451;-52
2022/06/15 11:24:04;;;;;;;2.42;0.80;;;;;;;29.39;22.48;101864.66;1423520;100;21156;-53
2022/06/15 11:26:54;;;;;;;3.22;1.05;;;;;;;29.49;23.42;101865.62;1432535;99;21145;-51
2022/06/15 11:29:52;;;;;;;3.33;0.80;;;;;;;29.54;23.11;101859.37;1452914;97;21619;-55
2022/06/15 11:32:52;;;;;;;1.95;0.80;;;;;;;29.58;23.50;101864.83;1442840;99;21157;-50
2022/06/15 11:35:34;;;;;;;2.77;0.82;;;;;;;29.58;23.34;101864.83;1458240;98;21088;-50
2022/06/15 11:38:12;;;;;;;1.10;0.78;;;;;;;29.59;22.90;101866.55;1457391;97;21108;-51
2022/06/15 11:40:55;;;;;;;1.30;0.78;;;;;;;29.60;22.43;101862.88;1457264;97;21119;-50
2022/06/15 11:43:33;;;;;;;1.90;0.70;;;;;;;29.61;23.02;101859.23;1457562;97;21048;-50
2022/06/15 11:46:34;;;;;;;1.65;0.78;;;;;;;29.62;23.90;101862.25;1457047;98;21620;-50
2022/06/15 11:49:27;;;;;;;2.35;0.72;;;;;;;29.63;23.45;101863.97;1458253;98;21160;-51
2022/06/15 11:52:11;;;;;;;1.90;0.60;;;;;;;29.63;23.16;101864.83;1455674;98;21124;-51
2022/06/15 11:54:50;;;;;;;1.95;0.70;;;;;;;29.64;23.68;101861.63;1458238;98;21112;-50
2022/06/15 11:57:35;;;;;;;1.15;0.75;;;;;;;29.68;23.40;101863.08;1457767;98;21127;-50
2022/06/15 12:00:34;;;;;;;3.50;0.78;;;;;;;29.72;23.22;101861.83;1455826;98;21135;-52
2022/06/15 12:03:58;;;;;;;1.07;0.70;;;;;;;29.76;23.67;101856.60;1457651;98;21137;-54
2022/06/15 12:06:42;;;;;;;3.00;0.70;;;;;;;29.81;23.77;101859.76;1555217;92;21062;-49
2022/06/15 12:09:14;;;;;;;0.88;0.80;;;;;;;29.84;23.57;101857.31;1616214;87;21050;-50